Time;durP1;ratioP1;P1;durP2;ratioP2;P2;SDS_P1;SDS_P2;PMS_P1;PMS_P2;Temp;Humidity;BMP_temperature;BMP_pressure;BME280_temperature;BME280_humidity;BME280_pressure;Samples;Min_cycle;Max_cycle;Signal;HPM_P1;HPM_P2
2022/12/01 00:00:25;;;;;;;46.65;33.28;;;;;;;5.00;100.00;102620.28;5025073;28;20021;-85
2022/12/01 00:02:50;;;;;;;50.83;34.45;;;;;;;4.99;100.00;102615.09;5013958;28;20022;-85
2022/12/01 00:05:16;;;;;;;48.00;34.05;;;;;;;5.00;100.00;102609.00;5024001;28;20025;-85
2022/12/01 00:07:41;;;;;;;49.58;34.92;;;;;;;4.99;100.00;102618.56;5031595;28;20045;-82
2022/12/01 00:10:24;;;;;;;47.72;33.50;;;;;;;4.98;100.00;102614.25;5032844;28;20108;-81
2022/12/01 00:12:50;;;;;;;52.28;35.17;;;;;;;4.89;100.00;102606.63;5031066;28;20029;-81
2022/12/01 00:15:16;;;;;;;51.30;34.30;;;;;;;4.88;100.00;102615.34;5033921;28;20036;-85
2022/12/01 00:17:42;;;;;;;47.67;33.58;;;;;;;4.87;100.00;102605.81;5027279;28;20104;-85
2022/12/01 00:20:08;;;;;;;51.55;34.95;;;;;;;4.88;100.00;102617.94;5011369;28;20022;-85
2022/12/01 00:22:34;;;;;;;50.05;34.85;;;;;;;4.86;100.00;102603.22;5030940;28;20107;-80
2022/12/01 00:24:59;;;;;;;49.55;35.25;;;;;;;4.89;100.00;102603.16;5032090;28;20029;-81
2022/12/01 00:27:24;;;;;;;53.92;35.60;;;;;;;4.86;100.00;102608.44;5030744;28;20040;-81
2022/12/01 00:29:50;;;;;;;51.40;35.53;;;;;;;4.85;100.00;102609.34;5031732;28;20034;-81
2022/12/01 00:32:15;;;;;;;52.25;35.47;;;;;;;4.84;100.00;102610.22;5030525;28;20522;-85
2022/12/01 00:34:41;;;;;;;56.88;36.97;;;;;;;4.83;100.00;102611.97;5025640;28;20032;-85
2022/12/01 00:37:06;;;;;;;54.92;35.50;;;;;;;4.89;100.00;102608.38;5016491;28;20013;-85
2022/12/01 00:39:31;;;;;;;52.67;35.83;;;;;;;4.87;100.00;102618.84;5029905;28;20029;-84
2022/12/01 00:41:57;;;;;;;52.88;35.72;;;;;;;4.86;100.00;102608.44;5030281;28;20009;-85
2022/12/01 00:44:22;;;;;;;56.00;36.10;;;;;;;4.87;100.00;102611.03;5030006;28;20482;-85
2022/12/01 00:46:47;;;;;;;52.33;36.15;;;;;;;4.87;100.00;102611.03;5032102;28;20026;-85
2022/12/01 00:49:14;;;;;;;56.22;36.50;;;;;;;4.86;100.00;102608.44;5029326;28;20044;-85
2022/12/01 00:51:39;;;;;;;57.17;37.47;;;;;;;4.88;100.00;102611.88;5029003;28;20032;-85
2022/12/01 00:54:05;;;;;;;53.95;36.08;;;;;;;4.88;100.00;102610.13;5018867;28;20025;-85
2022/12/01 00:56:30;;;;;;;54.90;36.15;;;;;;;4.86;100.00;102609.31;5030450;28;20057;-85
2022/12/01 00:58:55;;;;;;;55.53;37.33;;;;;;;4.88;100.00;102617.94;5031632;28;20037;-84
2022/12/01 01:01:22;;;;;;;56.55;36.90;;;;;;;4.87;100.00;102611.03;5029610;28;20021;-84
2022/12/01 01:03:47;;;;;;;57.72;36.63;;;;;;;4.87;100.00;102611.03;5030577;28;20025;-84
2022/12/01 01:06:13;;;;;;;58.25;37.55;;;;;;;4.92;100.00;102621.34;5030932;28;20036;-85
2022/12/01 01:08:39;;;;;;;62.55;37.63;;;;;;;4.89;100.00;102614.44;5032969;28;20837;-85
2022/12/01 01:11:06;;;;;;;66.82;39.03;;;;;;;4.91;100.00;102619.63;5018929;28;20094;-85
2022/12/01 01:13:33;;;;;;;63.08;39.17;;;;;;;4.90;100.00;102621.38;5041374;28;20025;-84
2022/12/01 01:16:00;;;;;;;66.82;39.10;;;;;;;4.89;100.00;102624.88;5030656;28;20033;-85
2022/12/01 01:18:26;;;;;;;67.90;39.60;;;;;;;4.89;100.00;102624.88;5030462;28;20029;-85
2022/12/01 01:21:01;;;;;;;71.10;40.35;;;;;;;4.89;100.00;102630.09;5031485;28;20030;-85
2022/12/01 01:23:27;;;;;;;63.58;38.70;;;;;;;4.88;100.00;102620.56;5028632;28;20022;-86
2022/12/01 01:25:52;;;;;;;69.47;39.35;;;;;;;4.88;100.00;102630.13;5019791;28;20036;-85
2022/12/01 01:28:21;;;;;;;65.90;39.00;;;;;;;4.89;100.00;102632.72;5035838;28;20375;-86
2022/12/01 01:30:46;;;;;;;68.38;39.22;;;;;;;4.88;100.00;102638.81;5031178;28;20033;-86
2022/12/01 01:33:11;;;;;;;65.13;39.78;;;;;;;4.89;100.00;102639.66;5031329;28;20367;-82
2022/12/01 01:35:37;;;;;;;66.75;38.28;;;;;;;4.87;100.00;102644.91;5031669;28;20025;-86
2022/12/01 01:38:05;;;;;;;68.93;39.88;;;;;;;4.89;100.00;102645.75;5029559;28;20029;-86
2022/12/01 01:40:31;;;;;;;68.38;38.67;;;;;;;4.90;100.00;102651.81;5029727;28;20505;-86
2022/12/01 01:42:57;;;;;;;64.57;38.28;;;;;;;4.88;100.00;102649.25;5029678;28;20045;-85
2022/12/01 01:45:27;;;;;;;61.13;36.58;;;;;;;4.88;100.00;102643.16;5028902;28;20787;-87
2022/12/01 01:47:56;;;;;;;61.47;37.20;;;;;;;4.85;100.00;102646.72;5031805;28;20030;-86
2022/12/01 01:50:25;;;;;;;59.08;36.22;;;;;;;4.85;100.00;102648.47;5030751;28;20025;-86
2022/12/01 01:52:58;;;;;;;58.10;35.42;;;;;;;4.84;100.00;102642.38;5029679;28;20065;-87
2022/12/01 01:55:24;;;;;;;59.42;35.58;;;;;;;4.86;100.00;102642.34;5029230;28;20557;-86
2022/12/01 01:57:50;;;;;;;61.47;36.13;;;;;;;4.85;100.00;102649.31;5026540;28;20025;-86
2022/12/01 02:00:20;;;;;;;63.08;36.47;;;;;;;4.84;100.00;102646.75;5010409;28;20029;-86
2022/12/01 02:02:50;;;;;;;61.50;36.78;;;;;;;4.85;100.00;102649.31;5011002;28;20037;-86
2022/12/01 02:05:23;;;;;;;60.83;37.22;;;;;;;4.86;100.00;102651.03;5027941;28;20025;-82
2022/12/01 02:07:55;;;;;;;60.42;35.88;;;;;;;4.88;100.00;102651.00;5029865;28;20052;-81
2022/12/01 02:10:28;;;;;;;63.13;36.83;;;;;;;4.88;100.00;102644.03;5028318;28;20036;-81
2022/12/01 02:13:22;;;;;;;64.05;37.42;;;;;;;4.91;100.00;102649.19;5029226;28;20112;-86
2022/12/01 02:16:08;;;;;;;60.85;36.65;;;;;;;4.89;100.00;102648.34;5017274;28;20037;-85
2022/12/01 02:18:51;;;;;;;64.97;37.88;;;;;;;4.91;100.00;102646.56;5029697;28;20025;-85
2022/12/01 02:21:25;;;;;;;65.10;37.88;;;;;;;4.91;100.00;102648.31;5029082;28;20032;-86
2022/12/01 02:24:19;;;;;;;61.53;37.13;;;;;;;4.91;100.00;102643.97;5029449;28;20037;-85
2022/12/01 02:27:13;;;;;;;66.45;36.80;;;;;;;4.94;100.00;102646.50;5029221;28;20493;-85
2022/12/01 02:30:03;;;;;;;62.83;37.03;;;;;;;4.93;100.00;102650.00;5009517;28;20485;-85
2022/12/01 02:32:39;;;;;;;64.10;37.72;;;;;;;4.92;100.00;102650.03;5014256;28;20045;-85
2022/12/01 02:35:22;;;;;;;66.53;39.22;;;;;;;4.94;100.00;102651.72;5028068;28;20033;-85
2022/12/01 02:38:19;;;;;;;71.22;39.63;;;;;;;4.93;100.00;102644.78;5029726;28;20087;-85
2022/12/01 02:40:49;;;;;;;62.53;37.80;;;;;;;4.91;100.00;102648.31;5023257;28;20143;-85
2022/12/01 02:43:30;;;;;;;65.07;39.17;;;;;;;4.91;100.00;102649.19;5029111;28;20029;-85
2022/12/01 02:46:03;;;;;;;73.38;40.72;;;;;;;4.88;100.00;102644.03;5027956;28;20112;-85
2022/12/01 02:48:32;;;;;;;68.30;40.58;;;;;;;4.89;100.00;102650.97;5022470;28;20072;-85
2022/12/01 02:51:01;;;;;;;68.85;39.78;;;;;;;4.88;100.00;102651.84;5026219;28;20031;-85
2022/12/01 02:53:27;;;;;;;68.40;41.20;;;;;;;4.87;100.00;102644.91;5028565;28;20041;-85
2022/12/01 02:55:56;;;;;;;72.82;40.45;;;;;;;4.88;100.00;102644.03;5027202;28;20029;-85
2022/12/01 02:58:22;;;;;;;71.07;41.00;;;;;;;4.89;100.00;102644.88;5028763;28;20028;-85
2022/12/01 03:00:53;;;;;;;73.95;41.45;;;;;;;4.90;100.00;102647.47;5029358;28;20564;-85
2022/12/01 03:03:49;;;;;;;66.75;39.25;;;;;;;4.92;100.00;102656.09;5028714;28;20036;-85
2022/12/01 03:06:22;;;;;;;70.03;41.05;;;;;;;4.91;100.00;102651.78;5005499;28;20045;-85
2022/12/01 03:09:07;;;;;;;66.18;39.25;;;;;;;4.95;100.00;102650.81;5029415;28;20103;-85
2022/12/01 03:12:02;;;;;;;69.70;40.38;;;;;;;4.96;100.00;102651.69;5028256;28;20025;-85
2022/12/01 03:14:52;;;;;;;64.78;39.22;;;;;;;4.94;100.00;102654.31;5008279;28;20065;-85
2022/12/01 03:17:26;;;;;;;67.13;38.97;;;;;;;4.93;100.00;102652.59;5027325;28;20045;-85
2022/12/01 03:20:15;;;;;;;67.45;39.75;;;;;;;4.96;100.00;102644.72;5010365;28;20026;-85
2022/12/01 03:22:46;;;;;;;63.95;38.75;;;;;;;4.93;100.00;102651.75;5013061;28;20084;-85
2022/12/01 03:25:12;;;;;;;66.70;40.17;;;;;;;4.91;100.00;102646.56;5028571;28;20045;-81
2022/12/01 03:27:45;;;;;;;65.63;39.72;;;;;;;4.89;100.00;102644.88;5027768;28;20079;-85
2022/12/01 03:30:12;;;;;;;63.17;39.63;;;;;;;4.86;100.00;102651.03;5028730;28;20021;-86
2022/12/01 03:32:46;;;;;;;65.53;39.33;;;;;;;4.88;100.00;102649.25;5030094;28;20057;-85
2022/12/01 03:35:28;;;;;;;64.47;39.60;;;;;;;4.87;100.00;102650.13;5023957;28;20033;-85
2022/12/01 03:38:04;;;;;;;61.10;38.60;;;;;;;4.88;100.00;102649.25;5028404;28;20095;-85
2022/12/01 03:40:35;;;;;;;69.53;41.17;;;;;;;4.87;100.00;102649.28;5029161;28;20393;-85
2022/12/01 03:43:06;;;;;;;64.50;39.38;;;;;;;4.86;100.00;102650.16;5028566;28;20363;-85
2022/12/01 03:45:46;;;;;;;67.97;41.03;;;;;;;4.87;100.00;102657.97;5028873;28;20033;-86
2022/12/01 03:48:11;;;;;;;65.38;39.40;;;;;;;4.87;100.00;102647.53;5029738;28;20025;-85
2022/12/01 03:50:55;;;;;;;63.03;39.10;;;;;;;4.88;100.00;102646.63;5023959;28;20053;-85
2022/12/01 03:53:26;;;;;;;65.72;39.53;;;;;;;4.87;100.00;102646.66;5027038;28;20033;-85
2022/12/01 03:56:00;;;;;;;64.32;40.30;;;;;;;4.89;100.00;102656.19;5028352;28;20021;-85
2022/12/01 03:58:33;;;;;;;66.13;39.88;;;;;;;4.85;100.00;102651.91;5026034;28;20048;-85
2022/12/01 04:01:01;;;;;;;62.72;39.75;;;;;;;4.88;100.00;102654.47;5028819;28;20025;-85
2022/12/01 04:03:30;;;;;;;66.10;40.60;;;;;;;4.87;100.00;102652.75;5027044;28;20386;-82
2022/12/01 04:05:56;;;;;;;63.13;38.38;;;;;;;4.89;100.00;102650.09;5025337;28;20029;-85
2022/12/01 04:08:22;;;;;;;63.75;39.75;;;;;;;4.90;100.00;102652.69;5021972;28;20046;-85
2022/12/01 04:10:47;;;;;;;63.75;39.00;;;;;;;4.91;100.00;102654.41;5010879;28;20037;-85
2022/12/01 04:13:22;;;;;;;59.05;38.67;;;;;;;4.92;100.00;102650.91;5026807;28;20375;-85
2022/12/01 04:15:54;;;;;;;62.00;38.53;;;;;;;4.92;100.00;102657.84;5028033;28;20022;-85
2022/12/01 04:18:19;;;;;;;64.95;40.17;;;;;;;4.92;100.00;102655.25;5026166;28;20063;-85
2022/12/01 04:20:46;;;;;;;67.05;40.45;;;;;;;4.92;100.00;102661.31;5026579;28;20509;-85
2022/12/01 04:23:58;;;;;;;61.63;39.78;;;;;;;4.93;100.00;102652.59;5027929;28;20025;-85
2022/12/01 04:25:59;;;;;;;60.08;38.42;;;;;;;4.96;100.00;102660.38;5027141;28;20494;-85
2022/12/01 04:28:24;;;;;;;63.38;39.65;;;;;;;4.93;100.00;102651.75;5031653;28;20021;-85
2022/12/01 04:30:49;;;;;;;64.28;39.33;;;;;;;4.94;100.00;102659.53;5030689;28;20522;-85
2022/12/01 04:33:15;;;;;;;61.78;39.17;;;;;;;4.92;100.00;102650.91;5029453;28;20124;-85
2022/12/01 04:35:41;;;;;;;61.92;39.28;;;;;;;4.93;100.00;102652.59;5030517;28;20485;-85
2022/12/01 04:38:06;;;;;;;59.65;39.40;;;;;;;4.91;100.00;102657.00;5031101;28;20036;-86
2022/12/01 04:40:32;;;;;;;62.53;40.80;;;;;;;4.91;100.00;102657.00;5030179;28;20026;-85
2022/12/01 04:42:57;;;;;;;62.28;39.38;;;;;;;4.92;100.00;102652.66;5023948;28;20028;-85
2022/12/01 04:45:22;;;;;;;64.85;40.95;;;;;;;4.92;100.00;102650.03;5032080;28;20029;-84
2022/12/01 04:47:52;;;;;;;62.67;40.38;;;;;;;4.89;100.00;102655.31;5031189;28;20029;-85
2022/12/01 04:50:17;;;;;;;59.83;38.42;;;;;;;4.92;100.00;102655.25;5032601;28;20108;-85
2022/12/01 04:52:42;;;;;;;66.90;39.75;;;;;;;4.88;100.00;102649.25;5032577;28;20072;-85
2022/12/01 04:55:08;;;;;;;61.10;39.20;;;;;;;4.87;100.00;102652.75;5030333;28;20473;-84
2022/12/01 04:57:35;;;;;;;59.20;38.30;;;;;;;4.86;100.00;102656.25;5025103;28;20116;-85
2022/12/01 05:00:00;;;;;;;64.72;40.20;;;;;;;4.85;100.00;102654.53;5024062;28;20093;-85
2022/12/01 05:02:26;;;;;;;62.78;41.15;;;;;;;4.87;100.00;102651.88;5030009;28;20033;-85
2022/12/01 05:04:51;;;;;;;61.00;38.17;;;;;;;4.86;100.00;102655.38;5032764;28;20017;-85
2022/12/01 05:07:17;;;;;;;61.85;38.35;;;;;;;4.87;100.00;102646.66;5030080;28;20037;-84
2022/12/01 05:09:43;;;;;;;63.83;40.65;;;;;;;4.87;100.00;102652.75;5032018;28;20022;-85
2022/12/01 05:12:09;;;;;;;59.47;39.72;;;;;;;4.88;100.00;102648.38;5031054;28;20674;-84
2022/12/01 05:14:34;;;;;;;63.47;39.35;;;;;;;4.88;100.00;102649.25;5044451;28;20029;-85
2022/12/01 05:17:01;;;;;;;59.80;38.42;;;;;;;4.87;100.00;102642.31;5030402;28;20382;-84
2022/12/01 05:22:10;;;;;;;59.88;38.50;;;;;;;4.88;100.00;102648.38;5031078;28;20060;-84
2022/12/01 05:24:35;;;;;;;56.67;38.25;;;;;;;4.89;100.00;102655.31;5031725;28;20034;-85
2022/12/01 05:27:00;;;;;;;61.60;39.55;;;;;;;4.90;100.00;102660.50;5031925;28;20037;-85
2022/12/01 05:29:26;;;;;;;61.00;39.05;;;;;;;4.89;100.00;102657.94;5030336;28;20037;-85
2022/12/01 05:31:51;;;;;;;59.28;38.95;;;;;;;4.92;100.00;102661.31;5019119;28;20041;-85
2022/12/01 05:34:17;;;;;;;60.97;39.38;;;;;;;4.87;100.00;102652.75;5014259;28;20536;-81
2022/12/01 05:36:42;;;;;;;61.05;38.67;;;;;;;4.88;100.00;102654.47;5029634;28;20176;-81
2022/12/01 05:39:07;;;;;;;60.08;37.47;;;;;;;4.86;100.00;102656.25;5030391;28;20099;-85
2022/12/01 05:41:33;;;;;;;60.90;39.22;;;;;;;4.87;100.00;102664.94;5029997;28;20548;-85
2022/12/01 05:43:58;;;;;;;59.10;38.45;;;;;;;4.86;100.00;102656.25;5028465;28;20029;-85
2022/12/01 05:46:24;;;;;;;58.70;39.10;;;;;;;4.85;100.00;102664.09;5029783;28;20036;-86
2022/12/01 05:48:49;;;;;;;59.22;39.38;;;;;;;4.82;100.00;102662.41;5029958;28;20497;-86
2022/12/01 05:51:15;;;;;;;60.38;38.53;;;;;;;4.83;100.00;102658.06;5016918;28;20382;-86
2022/12/01 05:53:41;;;;;;;59.75;38.10;;;;;;;4.89;100.00;102666.59;5030436;28;20108;-86
2022/12/01 05:56:07;;;;;;;62.85;38.40;;;;;;;4.85;100.00;102659.75;5029903;28;20073;-85
2022/12/01 05:58:34;;;;;;;60.70;38.42;;;;;;;4.86;100.00;102665.81;5029367;28;20601;-82
2022/12/01 06:00:59;;;;;;;60.22;38.88;;;;;;;4.84;100.00;102663.25;5030475;28;20021;-82
2022/12/01 06:03:25;;;;;;;59.17;39.28;;;;;;;4.83;100.00;102666.75;5029573;28;20029;-85
2022/12/01 06:05:51;;;;;;;60.85;38.70;;;;;;;4.86;100.00;102665.81;5028526;28;20083;-85
2022/12/01 06:08:16;;;;;;;58.17;37.40;;;;;;;4.86;100.00;102671.03;5029104;28;20049;-86
2022/12/01 06:10:45;;;;;;;57.65;38.53;;;;;;;4.85;100.00;102670.16;5028801;28;20096;-86
2022/12/01 06:13:10;;;;;;;63.63;39.50;;;;;;;4.86;100.00;102666.69;5027527;28;20033;-86
2022/12/01 06:15:36;;;;;;;62.70;38.15;;;;;;;4.86;100.00;102669.28;5029645;28;20035;-86
2022/12/01 06:18:01;;;;;;;64.60;39.55;;;;;;;4.87;100.00;102664.94;5028702;28;20026;-86
2022/12/01 06:20:26;;;;;;;62.83;39.15;;;;;;;4.86;100.00;102668.44;5028383;28;20021;-86
2022/12/01 06:22:52;;;;;;;63.05;38.97;;;;;;;4.87;100.00;102668.38;5029585;28;20032;-86
2022/12/01 06:25:21;;;;;;;65.72;39.50;;;;;;;4.86;100.00;102665.81;5028157;28;20025;-86
2022/12/01 06:27:46;;;;;;;66.53;39.25;;;;;;;4.86;100.00;102671.88;5028558;28;20025;-86
2022/12/01 06:30:12;;;;;;;60.45;39.47;;;;;;;4.84;100.00;102665.84;5026452;28;20048;-86
2022/12/01 06:32:38;;;;;;;67.25;38.88;;;;;;;4.85;100.00;102667.56;5028020;28;20073;-82
2022/12/01 06:35:03;;;;;;;73.15;41.92;;;;;;;4.83;100.00;102671.09;5034014;28;20053;-82
2022/12/01 06:37:29;;;;;;;65.50;40.97;;;;;;;4.82;100.00;102666.78;5020188;28;20041;-82
2022/12/01 06:39:54;;;;;;;64.13;39.78;;;;;;;4.82;100.00;102670.25;5028154;28;20026;-82
2022/12/01 06:42:20;;;;;;;65.05;39.92;;;;;;;4.82;100.00;102664.16;5027769;28;20064;-86
2022/12/01 06:44:45;;;;;;;62.35;39.90;;;;;;;4.82;100.00;102670.25;5029931;28;20047;-86
2022/12/01 06:47:11;;;;;;;66.45;40.30;;;;;;;4.84;100.00;102668.47;5028006;28;20462;-85
2022/12/01 06:49:37;;;;;;;64.15;40.40;;;;;;;4.81;100.00;102667.66;5027454;28;20034;-84
2022/12/01 06:52:05;;;;;;;65.05;40.03;;;;;;;4.82;100.00;102672.00;5009992;28;20518;-85
2022/12/01 06:54:30;;;;;;;62.72;38.90;;;;;;;4.85;100.00;102680.59;5008951;28;20026;-85
2022/12/01 06:56:57;;;;;;;62.97;39.65;;;;;;;4.84;100.00;102686.72;5013371;28;20021;-85
2022/12/01 06:59:23;;;;;;;64.80;39.13;;;;;;;4.85;100.00;102683.22;5028785;28;20095;-85
2022/12/01 07:01:48;;;;;;;65.90;37.92;;;;;;;4.86;100.00;102684.94;5027540;28;20029;-85
2022/12/01 07:04:14;;;;;;;63.08;38.15;;;;;;;4.86;100.00;102690.16;5029216;28;20036;-85
2022/12/01 07:06:39;;;;;;;62.50;38.35;;;;;;;4.86;100.00;102692.75;5029630;28;20402;-85
2022/12/01 07:09:05;;;;;;;62.80;37.85;;;;;;;4.83;100.00;102692.81;5028086;28;20041;-85
2022/12/01 07:11:31;;;;;;;65.32;38.30;;;;;;;4.86;100.00;102702.31;5029446;28;20112;-85
2022/12/01 07:13:57;;;;;;;68.68;38.90;;;;;;;4.84;100.00;102694.53;5030713;28;20053;-82
2022/12/01 07:16:22;;;;;;;64.75;37.33;;;;;;;4.86;100.00;102703.19;5021707;28;20851;-85
2022/12/01 07:18:48;;;;;;;62.35;38.13;;;;;;;4.88;100.00;102706.63;5031142;28;20036;-85
2022/12/01 07:21:14;;;;;;;63.65;39.13;;;;;;;4.87;100.00;102699.69;5027632;28;20433;-85
2022/12/01 07:23:40;;;;;;;64.45;38.97;;;;;;;4.88;100.00;102703.16;5023605;28;20025;-85
2022/12/01 07:26:14;;;;;;;63.70;38.40;;;;;;;4.89;100.00;102703.13;5028784;28;20021;-85
2022/12/01 07:28:39;;;;;;;66.47;39.28;;;;;;;4.89;100.00;102705.72;5029370;28;20026;-85
2022/12/01 07:31:23;;;;;;;65.38;38.42;;;;;;;4.91;100.00;102716.13;5028895;28;20025;-87
2022/12/01 07:33:48;;;;;;;61.58;37.58;;;;;;;4.90;100.00;102709.19;5027805;28;20057;-84
2022/12/01 07:36:14;;;;;;;66.85;37.83;;;;;;;4.92;100.00;102708.28;5026902;28;20071;-85
2022/12/01 07:38:39;;;;;;;61.83;37.88;;;;;;;4.92;100.00;102708.28;5029041;28;20520;-84
2022/12/01 07:41:09;;;;;;;65.05;38.58;;;;;;;4.95;100.00;102712.56;5028119;28;20037;-86
2022/12/01 07:43:35;;;;;;;63.63;37.80;;;;;;;4.97;100.00;102711.63;5019382;28;20711;-84
2022/12/01 07:46:09;;;;;;;63.03;37.08;;;;;;;4.98;100.00;102707.28;5018871;28;20025;-85
2022/12/01 07:48:39;;;;;;;56.83;36.83;;;;;;;4.98;100.00;102715.09;5026073;28;20100;-84
2022/12/01 07:51:06;;;;;;;57.35;35.95;;;;;;;4.99;100.00;102720.28;5028082;28;20047;-84
2022/12/01 07:53:31;;;;;;;56.92;35.30;;;;;;;4.99;100.00;102720.28;5028751;28;20418;-82
2022/12/01 07:55:57;;;;;;;59.42;37.08;;;;;;;4.99;100.00;102714.22;5028019;28;20127;-82
2022/12/01 07:58:23;;;;;;;55.47;36.00;;;;;;;5.02;100.00;102724.59;5029895;28;20030;-82
2022/12/01 08:00:48;;;;;;;62.42;36.45;;;;;;;5.02;100.00;102724.59;5031499;28;20110;-82
2022/12/01 08:03:14;;;;;;;55.85;35.83;;;;;;;5.00;100.00;102727.22;5031390;28;20025;-82
2022/12/01 08:05:39;;;;;;;62.08;37.85;;;;;;;5.04;100.00;102728.88;5031232;28;20025;-82
2022/12/01 08:08:05;;;;;;;59.55;36.42;;;;;;;5.07;100.00;102729.72;5032348;28;20050;-82
2022/12/01 08:10:31;;;;;;;59.85;37.00;;;;;;;5.08;100.00;102734.03;5032334;28;20026;-82
2022/12/01 08:12:56;;;;;;;57.60;36.28;;;;;;;5.08;100.00;102740.09;5032340;28;20034;-84
2022/12/01 08:15:22;;;;;;;63.72;36.88;;;;;;;5.08;100.00;102734.88;5030625;28;20041;-84
2022/12/01 08:17:47;;;;;;;62.03;38.10;;;;;;;5.11;100.00;102736.56;5025877;28;20074;-84
2022/12/01 08:20:14;;;;;;;64.55;38.38;;;;;;;5.14;100.00;102739.13;5020957;28;21919;-85
2022/12/01 08:22:40;;;;;;;61.10;37.22;;;;;;;5.15;100.00;102746.06;5022962;28;20064;-86
2022/12/01 08:25:06;;;;;;;57.42;36.83;;;;;;;5.16;100.00;102738.19;5025606;28;20159;-86
2022/12/01 08:27:32;;;;;;;58.15;37.08;;;;;;;5.17;100.00;102741.66;5048395;28;20017;-86
2022/12/01 08:29:57;;;;;;;56.60;35.95;;;;;;;5.15;100.00;102740.84;5031122;28;20174;-81
2022/12/01 08:32:22;;;;;;;61.33;38.45;;;;;;;5.17;100.00;102744.28;5030986;28;20037;-86
2022/12/01 08:34:48;;;;;;;60.25;37.65;;;;;;;5.18;100.00;102751.19;5031928;28;20125;-86
2022/12/01 08:37:13;;;;;;;54.30;36.33;;;;;;;5.24;100.00;102751.09;5032249;28;20470;-86
2022/12/01 08:39:39;;;;;;;58.28;37.08;;;;;;;5.22;100.00;102751.13;5031446;28;20135;-86
2022/12/01 08:42:04;;;;;;;56.15;36.38;;;;;;;5.25;100.00;102747.59;5030566;28;20464;-86
2022/12/01 08:44:31;;;;;;;61.60;37.53;;;;;;;5.25;100.00;102753.69;5046780;28;20032;-86
2022/12/01 08:46:57;;;;;;;58.92;37.08;;;;;;;5.26;100.00;102749.31;5030053;28;20028;-87
2022/12/01 08:49:23;;;;;;;57.53;36.67;;;;;;;5.28;100.00;102747.53;5031495;28;20033;-86
2022/12/01 08:51:51;;;;;;;56.83;37.40;;;;;;;5.25;100.00;102748.47;5048566;28;20025;-86
2022/12/01 08:54:16;;;;;;;56.20;36.83;;;;;;;5.31;100.00;102752.69;5030734;28;20496;-85
2022/12/01 08:56:43;;;;;;;55.80;37.45;;;;;;;5.31;100.00;102752.69;5032520;28;20029;-86
2022/12/01 08:59:09;;;;;;;59.83;37.80;;;;;;;5.37;100.00;102751.69;5030915;28;20021;-80
2022/12/01 09:01:50;;;;;;;57.20;37.35;;;;;;;5.33;100.00;102751.75;5031568;28;20032;-81
2022/12/01 09:04:17;;;;;;;57.47;37.30;;;;;;;5.34;100.00;102748.25;5047015;28;20037;-86
2022/12/01 09:06:45;;;;;;;55.35;36.67;;;;;;;5.40;100.00;102754.22;5047619;28;20031;-86
2022/12/01 09:09:13;;;;;;;54.10;35.65;;;;;;;5.39;100.00;102755.13;5045498;28;20056;-85
2022/12/01 09:11:38;;;;;;;55.30;36.83;;;;;;;5.43;100.00;102752.41;5032792;28;20555;-81
2022/12/01 09:14:04;;;;;;;54.45;36.85;;;;;;;5.44;100.00;102748.91;5023263;28;20026;-81
2022/12/01 09:16:30;;;;;;;51.28;35.25;;;;;;;5.44;100.00;102756.75;5022716;28;20474;-81
2022/12/01 09:18:55;;;;;;;55.30;36.55;;;;;;;5.47;100.00;102756.66;5035537;28;20564;-86
2022/12/01 09:21:27;;;;;;;56.60;36.10;;;;;;;5.51;100.00;102754.84;5030798;28;20039;-85
2022/12/01 09:23:53;;;;;;;51.03;34.60;;;;;;;5.51;100.00;102762.69;5032265;28;20433;-86
2022/12/01 09:26:22;;;;;;;53.80;36.30;;;;;;;5.52;100.00;102762.66;5031965;28;20029;-86
2022/12/01 09:28:56;;;;;;;52.83;36.40;;;;;;;5.54;100.00;102768.69;5031727;28;20381;-80
2022/12/01 09:31:22;;;;;;;49.75;35.92;;;;;;;5.63;100.00;102770.25;5030508;28;20029;-85
2022/12/01 09:33:55;;;;;;;50.63;35.95;;;;;;;5.64;100.00;102761.53;5030481;28;20060;-80
2022/12/01 09:36:20;;;;;;;52.20;35.67;;;;;;;5.70;100.00;102769.22;5046470;28;20021;-85
2022/12/01 09:38:46;;;;;;;52.13;35.78;;;;;;;5.68;100.00;102773.63;5032305;28;20025;-85
2022/12/01 09:41:25;;;;;;;53.22;36.55;;;;;;;5.71;100.00;102773.56;5031011;28;20013;-85
2022/12/01 09:43:59;;;;;;;49.95;34.83;;;;;;;5.71;100.00;102773.56;5030028;28;20385;-86
2022/12/01 09:46:32;;;;;;;52.75;35.53;;;;;;;5.73;100.00;102773.50;5029950;28;20166;-86
2022/12/01 09:49:01;;;;;;;54.08;37.10;;;;;;;5.73;100.00;102771.75;5029489;28;20078;-85
2022/12/01 09:51:28;;;;;;;53.67;36.28;;;;;;;5.71;100.00;102772.69;5029288;28;20052;-81
2022/12/01 09:53:57;;;;;;;52.67;36.45;;;;;;;5.72;100.00;102767.44;5030756;28;20025;-85
2022/12/01 09:56:30;;;;;;;53.88;36.78;;;;;;;5.72;100.00;102764.81;5030148;28;20022;-85
2022/12/01 09:58:59;;;;;;;54.10;36.97;;;;;;;5.80;100.00;102767.25;5030667;28;20033;-85
2022/12/01 10:01:36;;;;;;;53.92;36.65;;;;;;;5.81;100.00;102764.59;5028554;28;20029;-81
2022/12/01 10:04:08;;;;;;;51.58;36.53;;;;;;;5.88;100.00;102760.09;5029577;28;20025;-86
2022/12/01 10:06:47;;;;;;;50.78;35.63;;;;;;;5.95;100.00;102756.47;5030031;28;20036;-87
2022/12/01 10:09:16;;;;;;;52.80;36.13;;;;;;;5.90;100.00;102758.34;5029751;28;20095;-86
2022/12/01 10:11:44;;;;;;;56.95;37.15;;;;;;;5.90;100.00;102755.72;5029285;28;20033;-81
2022/12/01 10:14:16;;;;;;;53.40;36.83;;;;;;;5.92;100.00;102757.41;5028620;28;20512;-81
2022/12/01 10:17:14;;;;;;;53.47;37.35;;;;;;;5.94;100.00;102755.59;5030524;28;20034;-85
2022/12/01 10:19:52;;;;;;;54.72;37.90;;;;;;;5.95;100.00;102759.06;5029271;28;20013;-86
2022/12/01 10:22:38;;;;;;;51.17;36.28;;;;;;;5.95;100.00;102748.63;5010261;28;20493;-87
2022/12/01 10:25:25;;;;;;;54.92;38.15;;;;;;;5.93;100.00;102758.25;5009316;28;20033;-86
2022/12/01 10:28:12;;;;;;;50.85;36.83;;;;;;;5.93;100.00;102747.81;5014683;28;20025;-82
2022/12/01 10:30:50;;;;;;;51.78;36.53;;;;;;;5.92;100.00;102746.09;5030530;28;20482;-86
2022/12/01 10:33:23;;;;;;;53.28;36.75;;;;;;;5.93;100.00;102748.66;5028746;28;20048;-86
2022/12/01 10:35:49;;;;;;;55.78;38.05;;;;;;;6.00;100.00;102741.53;5022850;28;20501;-86
2022/12/01 10:38:36;;;;;;;57.13;38.38;;;;;;;6.07;100.00;102743.13;5030021;28;20048;-81
2022/12/01 10:41:13;;;;;;;58.22;38.80;;;;;;;6.09;100.00;102737.88;5027937;28;20021;-81
2022/12/01 10:43:45;;;;;;;55.30;37.85;;;;;;;6.06;99.97;102740.56;5029414;28;20039;-86
2022/12/01 10:46:24;;;;;;;55.33;37.85;;;;;;;6.12;100.00;102733.41;5028634;28;20033;-86
2022/12/01 10:49:07;;;;;;;56.08;38.58;;;;;;;6.20;100.00;102726.22;5029655;28;20025;-81
2022/12/01 10:51:45;;;;;;;;;;;;;;;6.30;100.00;102724.22;5028523;28;20017;-86
2022/12/01 10:54:10;;;;;;;56.42;38.20;;;;;;;6.16;98.82;102734.19;5022219;28;19992;-86
2022/12/01 10:56:39;;;;;;;52.10;37.33;;;;;;;6.10;98.69;102726.50;5030136;28;20109;-86
2022/12/01 10:59:27;;;;;;;54.25;36.40;;;;;;;6.17;99.26;102730.69;5028881;28;20044;-88
2022/12/01 11:01:53;;;;;;;54.13;38.38;;;;;;;6.15;98.99;102722.88;5029721;28;20068;-86
2022/12/01 11:05:03;;;;;;;56.80;38.17;;;;;;;6.25;99.06;102732.19;5030472;28;20509;-81
2022/12/01 11:07:33;;;;;;;55.65;38.45;;;;;;;6.32;98.77;102711.97;4987083;28;20760;-81
2022/12/01 11:10:01;;;;;;;52.95;37.92;;;;;;;6.48;99.23;102722.91;4971715;28;20395;-85
2022/12/01 11:12:27;;;;;;;54.53;37.95;;;;;;;6.60;100.00;102719.94;4999416;28;20038;-85
2022/12/01 11:14:55;;;;;;;48.33;36.05;;;;;;;6.66;99.63;102714.53;5010469;28;20022;-85
2022/12/01 11:17:33;;;;;;;53.55;37.72;;;;;;;6.67;99.45;102710.19;5010755;28;20486;-81
2022/12/01 11:20:27;;;;;;;52.63;37.75;;;;;;;6.75;99.02;102719.53;5010749;28;20033;-85
2022/12/01 11:23:17;;;;;;;51.10;36.72;;;;;;;6.83;99.00;102708.88;5025479;28;20022;-85